Flight Track Log - Related Links

Times and Time Zones

All times are in EDT time to prevent confusion due to time zone crossing. See the N994CF flight status page for this flight to view local times or setup timezone preferences in your user account.

Time Position Orientation Groundspeed Altitude Reporting Facility
EDT Latitude Longitude Course Direction KTS MPH feet Rate Location/Type
Thu 10:53:16 AM 36.2581 -82.2622 185° South 220 253 8,100  Level Atlanta Center
Thu 10:54:15 AM 36.2003 -82.2967 206° Southwest 225 259 9,900 1,160 Climbing Atlanta Center
Thu 10:55:15 AM 36.1275 -82.3189 194° South 242 278 10,400 1,400 Climbing Atlanta Center
Thu 10:56:15 AM 36.0544 -82.3153 178° South 261 300 12,700 2,150 Climbing Atlanta Center
Thu 10:57:15 AM 35.9856 -82.3039 172° South 261 300 14,700 1,850 Climbing Atlanta Center
Thu 10:58:00 AM 35.8500 -82.2150 185° South  Level FlightAware Approximate
Thu 10:58:15 AM 35.9186 -82.2925 172° South 249 287 16,400  Level Atlanta Center
Thu 10:59:15 AM 35.8494 -82.2761 169° South 249 287 17,800 1,550 Climbing Atlanta Center
Thu 11:00:15 AM 35.7783 -82.2650 173° South 260 299 19,500 1,650 Climbing Atlanta Center
Thu 11:01:15 AM 35.7117 -82.2561 174° South 255 293 21,100 1,500 Climbing Atlanta Center
Thu 11:02:15 AM 35.6425 -82.2422 171° South 255 293 22,500 1,400 Climbing Atlanta Center
Thu 11:03:15 AM 35.5736 -82.2311 173° South 255 293 23,900 1,350 Climbing Atlanta Center
Thu 11:04:15 AM 35.5025 -82.2172 171° South 255 293 25,200 1,150 Climbing Atlanta Center
Thu 11:05:15 AM 35.4417 -82.2058 171° South 255 293 26,200 950 Climbing Atlanta Center
Thu 11:06:15 AM 35.3747 -82.1922 171° South 255 293 27,100 1,000 Climbing Atlanta Center
Thu 11:07:15 AM 35.3056 -82.1783 171° South 255 293 28,200 1,050 Climbing Atlanta Center
Thu 11:08:15 AM 35.2367 -82.1672 172° South 255 293 29,200 1,000 Climbing Atlanta Center
Thu 11:09:15 AM 35.1717 -82.1533 170° South 255 293 30,200 900 Climbing Atlanta Center
Thu 11:10:15 AM 35.1047 -82.1422 172° South 250 288 31,000 450 Climbing Atlanta Center
Thu 11:11:15 AM 35.0336 -82.1286 171° South 255 293 31,100 650 Climbing Atlanta Center
Thu 11:12:15 AM 34.9542 -82.1128 171° South 267 307 32,300 950 Climbing Atlanta Center
Thu 11:13:15 AM 34.8933 -82.0989 169° South 253 291 33,000 347 Climbing Atlanta Center
Thu 11:14:16 AM 34.8203 -82.0931 176° South 260 299 33,000  Level Atlanta Center
Thu 11:15:15 AM 34.7472 -82.1025 186° South 265 305 33,000  Level Atlanta Center
Thu 11:16:15 AM 34.6681 -82.1042 181° South 277 319 33,000  Level Atlanta Center
Thu 11:17:15 AM 34.5844 -82.0911 173° South 290 334 33,000 -50 Level Atlanta Center
Thu 11:18:16 AM 34.4964 -82.0703 169° South 309 356 32,900  Descending Atlanta Center
Thu 11:19:16 AM 34.4064 -82.0547 172° South 320 368 33,000 50 Climbing Atlanta Center
Thu 11:20:15 AM 34.3164 -82.0367 171° South 326 375 33,000  Level Atlanta Center
Thu 11:21:15 AM 34.2264 -82.0239 173° South 332 382 33,000 300 Level Atlanta Center
Thu 11:22:15 AM 34.1386 -82.0208 178° South 327 376 33,600 500 Climbing Atlanta Center
Thu 11:23:15 AM 34.0550 -82.0053 171° South 322 371 34,000 200 Climbing Atlanta Center
Thu 11:24:15 AM 33.9692 -81.9872 170° South 316 364 34,000  Level Atlanta Center
Thu 11:26:42 AM 33.7450 -81.9008 162° South 332 382 34,000  Level Jacksonville Center
Thu 11:27:42 AM 33.6650 -81.8294 143° Southeast 348 400 34,000  Level Jacksonville Center
Thu 11:28:42 AM 33.5831 -81.7631 146° Southeast 358 412 34,000  Level Jacksonville Center
Thu 11:29:42 AM 33.4989 -81.6944 146° Southeast 363 418 34,000  Level Jacksonville Center
Thu 11:30:42 AM 33.4108 -81.6458 155° Southeast 358 412 34,000  Level Jacksonville Center
Thu 11:31:42 AM 33.3228 -81.6075 160° South 353 406 34,000  Level Jacksonville Center
Thu 11:32:42 AM 33.2325 -81.5664 159° South 348 400 34,000 -50 Level Jacksonville Center
Thu 11:33:42 AM 33.1406 -81.5456 169° South 348 400 33,900  Descending Jacksonville Center
Thu 11:34:42 AM 33.0486 -81.5269 170° South 341 392 34,000  Climbing Jacksonville Center
Thu 11:35:42 AM 32.9564 -81.5061 169° South 341 392 33,900  Descending Jacksonville Center
Thu 11:36:42 AM 32.8644 -81.4853 169° South 335 386 34,000 50 Climbing Jacksonville Center
Thu 11:37:42 AM 32.7722 -81.4669 171° South 335 386 34,000  Level Jacksonville Center
Thu 11:38:42 AM 32.6803 -81.4461 169° South 335 386 34,000  Level Jacksonville Center
Thu 11:39:42 AM 32.5986 -81.4228 166° South 330 380 34,000  Level Jacksonville Center
Thu 11:40:42 AM 32.4958 -81.3975 168° South 340 391 34,000 -50 Level Jacksonville Center
Thu 11:41:42 AM 32.3994 -81.3694 166° South 340 391 33,900  Descending Jacksonville Center
Thu 11:42:42 AM 32.3075 -81.3489 169° South 348 400 34,000  Climbing Jacksonville Center
Thu 11:43:42 AM 32.2133 -81.3236 167° South 348 400 33,900  Descending Jacksonville Center
Thu 11:44:42 AM 32.1189 -81.2981 167° South 348 400 34,000  Climbing Jacksonville Center
Thu 11:45:42 AM 32.0247 -81.2728 167° South 342 394 33,900 -50 Descending Jacksonville Center
Thu 11:46:42 AM 31.9303 -81.2475 167° South 347 399 33,900  Level Jacksonville Center
Thu 11:47:42 AM 31.8383 -81.2247 168° South 347 399 33,900 -550 Level Jacksonville Center
Thu 11:48:42 AM 31.7397 -81.1997 168° South 352 405 32,800 -1,100 Descending Jacksonville Center
Thu 11:49:42 AM 31.6497 -81.1744 167° South 367 422 31,700 -1,250 Descending Jacksonville Center
Thu 11:50:42 AM 31.5344 -81.1450 168° South 386 444 30,300 -850 Descending Jacksonville Center
Thu 11:51:42 AM 31.4442 -81.1197 167° South 380 437 30,000 -150 Descending Jacksonville Center
Thu 11:52:42 AM 31.3439 -81.0997 170° South 367 422 30,000  Level Jacksonville Center
Thu 11:53:42 AM 31.2478 -81.1017 181° South 362 417 30,000  Level Jacksonville Center
Thu 11:54:42 AM 31.1536 -81.0961 177° South 354 407 30,000  Level Jacksonville Center
Thu 11:55:42 AM 31.0617 -81.0761 169° South 342 394 30,000  Level Jacksonville Center
Thu 11:56:42 AM 30.9778 -81.0511 166° South 334 384 30,000  Level Jacksonville Center
Thu 11:57:42 AM 30.8897 -81.0286 168° South 329 379 30,000  Level Jacksonville Center
Thu 11:58:42 AM 30.7994 -81.0014 165° South 329 379 30,000  Level Jacksonville Center
Thu 12:00:42 PM 30.6192 -80.9517 167° South 335 386 30,000  Level Jacksonville Center
Thu 12:01:42 PM 30.5250 -80.9272 167° South 340 391 30,000  Level Jacksonville Center
Thu 12:02:42 PM 30.4306 -80.9003 166° South 345 397 30,000  Level Jacksonville Center
Thu 12:03:43 PM 30.3361 -80.8758 167° South 350 403 30,000  Level Jacksonville Center
Thu 12:04:42 PM 30.2417 -80.8489 166° South 350 403 30,000  Level Jacksonville Center
Thu 12:05:42 PM 30.1494 -80.8244 167° South 355 409 30,000  Level Jacksonville Center
Thu 12:06:42 PM 30.0531 -80.7978 167° South 355 409 30,000  Level Jacksonville Center
Thu 12:07:42 PM 29.9586 -80.7733 167° South 355 409 30,000  Level Jacksonville Center
Thu 12:08:42 PM 29.8622 -80.7492 168° South 355 409 30,000  Level Jacksonville Center
Thu 12:11:00 PM 29.6408 -80.6872 166° South 354 407 30,000  Level Miami Center
Thu 12:12:00 PM 29.5456 -80.6625 167° South 354 407 30,000  Level Miami Center
Thu 12:13:12 PM 29.4711 -80.6408 166° South 354 407 30,000  Level Miami Center
Thu 12:14:12 PM 29.3489 -80.6103 168° South 354 407 30,000  Level Miami Center
Thu 12:15:12 PM 29.2558 -80.5881 168° South 354 407 30,000  Level Miami Center
Thu 12:16:12 PM 29.1625 -80.5614 166° South 354 407 30,000  Level Miami Center
Thu 12:17:12 PM 29.0692 -80.5392 168° South 354 407 30,000  Level Miami Center
Thu 12:18:12 PM 28.9719 -80.5122 166° South 354 407 30,000  Level Miami Center
Thu 12:19:12 PM 28.8872 -80.4739 158° South 337 388 30,000  Level Miami Center
Thu 12:20:12 PM 28.7861 -80.4303 159° South 347 399 30,000  Level Miami Center
Thu 12:21:12 PM 28.6956 -80.3872 157° South 347 399 30,000  Level Miami Center
Thu 12:22:12 PM 28.6067 -80.3489 159° South 347 399 30,000  Level Miami Center
Thu 12:23:12 PM 28.5261 -80.3133 159° South 347 399 30,000  Level Miami Center
Thu 12:24:12 PM 28.4353 -80.2728 159° South 352 405 30,000  Level Miami Center
Thu 12:25:12 PM 28.3383 -80.2297 159° South 347 399 30,000  Level Miami Center
Thu 12:26:12 PM 28.2517 -80.1917 159° South 349 402 30,000  Level Miami Center
Thu 12:27:12 PM 28.1606 -80.1514 159° South 349 402 30,000  Level Miami Center
Thu 12:28:12 PM 28.0822 -80.1139 157° South 349 402 30,000 -400 Level Miami Center
Thu 12:29:12 PM 27.9911 -80.0736 159° South 349 402 29,200 -1,200 Descending Miami Center
Thu 12:30:12 PM 27.8817 -80.0258 159° South 364 419 27,600 -1,400 Descending Miami Center
Thu 12:31:12 PM 27.7906 -79.9881 160° South 386 444 26,400 -1,350 Descending Miami Center
Thu 12:32:12 PM 27.6914 -79.9456 159° South 386 444 24,900 -1,200 Descending Miami Center
Thu 12:33:12 PM 27.5961 -79.9031 158° South 379 436 24,000 -450 Descending Miami Center
Thu 12:34:12 PM 27.5094 -79.8633 158° South 353 406 24,000  Level Miami Center
Thu 12:35:12 PM 27.4081 -79.8186 159° South 347 399 24,000 -550 Level Miami Center
Thu 12:36:12 PM 27.3147 -79.7786 159° South 352 405 22,900 -1,250 Descending Miami Center
Thu 12:37:12 PM 27.2153 -79.7458 164° South 366 421 21,500 3,550 Descending Miami Center
Thu 12:38:12 PM 27.1383 -79.7253 167° South 366 421 30,000 -2,550 Climbing Miami Center
Thu 12:39:12 PM 27.0386 -79.6950 165° South 338 389 16,400 -8,150 Descending Miami Center
Thu 12:40:12 PM 26.9431 -79.6669 165° South 327 376 13,700 -2,350 Descending Miami Center
Thu 12:41:12 PM 26.8664 -79.6442 165° South 306 352 11,700 -2,000 Descending Miami Center
Thu 12:42:12 PM 26.7908 -79.6678 196° South 274 315 9,700 -1,800 Descending Miami Center
Thu 12:43:12 PM 26.7294 -79.6967 203° Southwest 279 321 8,100 -850 Descending Miami Center
Thu 12:44:12 PM 26.6747 -79.7208 202° Southwest 273 314 8,000 -50 Descending Miami Center
Thu 12:45:12 PM 26.5967 -79.7586 203° Southwest 258 297 8,000  Level Miami Center
Thu 12:46:10 PM 26.5167 -79.7961 203° Southwest 286 329 8,000  Level Miami Center
Thu 12:47:12 PM 26.4533 -79.8247 202° Southwest 274 315 8,000  Level Miami Center
Thu 12:48:12 PM 26.3794 -79.8622 204° Southwest 274 315 8,000 -550 Level Miami Center
Thu 12:49:12 PM 26.3406 -79.9239 235° Southwest 262 302 6,900 -1,650 Descending Miami Center
Thu 12:50:12 PM 26.3056 -79.9994 243° Southwest 262 302 4,700 -1,800 Descending Miami Center
Thu 12:51:12 PM 26.2836 -80.0567 247° West 238 274 3,300 -829 Descending Miami Center
Thu 12:52:15 PM 26.2589 -80.1278 249° West 205 236 3,000 -200 Descending Miami Center
Thu 12:53:12 PM 26.2558 -80.1742 266° West 209 241 2,900 -103 Descending Miami Center
Thu 12:54:12 PM 26.2525 -80.2319 266° West 198 228 2,800 -333 Descending Miami Center
Thu 12:55:18 PM 26.2425 -80.3011 261° West 177 204 2,200 -271 Descending Miami Center
Thu 12:56:25 PM 26.2369 -80.3542 263° West 156 180 2,200  Level Miami Center
Thu 12:57:20 PM 26.2033 -80.3647 196° South 159 183 2,200  Level Miami Center
Thu 12:58:15 PM 26.1833 -80.3294 122° Southeast 148 170 2,200 -246 Level Miami Center
Thu 12:59:22 PM 26.1844 -80.2808 89° East 151 174 1,700 -563 Descending Miami Center
Thu 01:00:23 PM 26.1894 -80.2417 82° East 128 147 1,000 -738 Descending Miami Center
Thu 01:01:24 PM 26.1925 -80.1978 86° East 122 140 200 -787 Descending Miami Center
Thu 01:03:00 PM 26.1833 -80.1667 90° East  Level FlightAware Approximate
Thu 01:10:00 PM 26.1973 -80.1707 90° East  Level Estimated

Login

Don't have an account? Register now (free) for customized features, flight alerts, and more!